sensor_id;sensor_type;location;lat;lon;timestamp;P1;P2;P0
80861;PMS5003;71798;54.942;73.444;2024-01-30T00:00:23;53.50;40.50;22.50
80861;PMS5003;71798;54.942;73.444;2024-01-30T00:02:49;53.75;42.00;25.50
80861;PMS5003;71798;54.942;73.444;2024-01-30T00:05:16;53.50;39.50;23.25
80861;PMS5003;71798;54.942;73.444;2024-01-30T00:07:42;63.00;48.25;27.00
80861;PMS5003;71798;54.942;73.444;2024-01-30T00:10:08;50.75;39.00;23.50
80861;PMS5003;71798;54.942;73.444;2024-01-30T00:12:34;56.00;42.00;25.00
80861;PMS5003;71798;54.942;73.444;2024-01-30T00:15:08;47.50;37.50;22.00
80861;PMS5003;71798;54.942;73.444;2024-01-30T00:17:36;50.75;40.50;21.25
80861;PMS5003;71798;54.942;73.444;2024-01-30T00:20:03;44.75;35.00;21.50
80861;PMS5003;71798;54.942;73.444;2024-01-30T00:22:31;46.75;34.00;20.25
80861;PMS5003;71798;54.942;73.444;2024-01-30T00:24:59;37.00;29.00;15.00
80861;PMS5003;71798;54.942;73.444;2024-01-30T00:27:31;42.00;33.25;18.75
80861;PMS5003;71798;54.942;73.444;2024-01-30T00:29:57;41.50;32.00;18.50
80861;PMS5003;71798;54.942;73.444;2024-01-30T00:32:23;45.25;35.00;20.00
80861;PMS5003;71798;54.942;73.444;2024-01-30T00:34:49;39.50;33.00;20.00
80861;PMS5003;71798;54.942;73.444;2024-01-30T00:37:16;47.75;36.25;19.25
80861;PMS5003;71798;54.942;73.444;2024-01-30T00:39:42;55.50;42.75;24.25
80861;PMS5003;71798;54.942;73.444;2024-01-30T00:42:09;55.00;42.25;25.00
80861;PMS5003;71798;54.942;73.444;2024-01-30T00:44:35;88.00;70.25;37.75
80861;PMS5003;71798;54.942;73.444;2024-01-30T00:47:04;100.50;77.00;39.25
80861;PMS5003;71798;54.942;73.444;2024-01-30T00:49:30;100.25;80.00;42.00
80861;PMS5003;71798;54.942;73.444;2024-01-30T00:51:56;86.50;63.50;32.75
80861;PMS5003;71798;54.942;73.444;2024-01-30T00:54:23;88.00;68.75;34.75
80861;PMS5003;71798;54.942;73.444;2024-01-30T00:56:49;80.00;61.00;32.75
80861;PMS5003;71798;54.942;73.444;2024-01-30T00:59:21;64.75;49.00;28.00
80861;PMS5003;71798;54.942;73.444;2024-01-30T01:01:47;70.00;53.00;31.00
80861;PMS5003;71798;54.942;73.444;2024-01-30T01:04:13;51.75;39.00;23.00
80861;PMS5003;71798;54.942;73.444;2024-01-30T01:06:39;58.00;43.75;25.25
80861;PMS5003;71798;54.942;73.444;2024-01-30T01:09:11;71.00;54.75;31.75
80861;PMS5003;71798;54.942;73.444;2024-01-30T01:11:42;70.25;53.25;31.25
80861;PMS5003;71798;54.942;73.444;2024-01-30T01:14:09;65.25;49.00;27.50
80861;PMS5003;71798;54.942;73.444;2024-01-30T01:16:35;72.50;55.50;34.00
80861;PMS5003;71798;54.942;73.444;2024-01-30T01:19:02;55.25;43.00;25.00
80861;PMS5003;71798;54.942;73.444;2024-01-30T01:21:29;62.00;48.00;29.00
80861;PMS5003;71798;54.942;73.444;2024-01-30T01:23:55;56.00;43.00;25.00
80861;PMS5003;71798;54.942;73.444;2024-01-30T01:26:21;52.75;40.50;24.50
80861;PMS5003;71798;54.942;73.444;2024-01-30T01:28:47;76.00;59.75;34.00
80861;PMS5003;71798;54.942;73.444;2024-01-30T01:31:14;62.25;47.00;27.50
80861;PMS5003;71798;54.942;73.444;2024-01-30T01:33:40;50.75;40.00;24.25
80861;PMS5003;71798;54.942;73.444;2024-01-30T01:36:06;40.75;32.50;18.00
80861;PMS5003;71798;54.942;73.444;2024-01-30T01:39:18;51.50;40.50;25.00
80861;PMS5003;71798;54.942;73.444;2024-01-30T01:42:29;43.00;32.75;18.00
80861;PMS5003;71798;54.942;73.444;2024-01-30T01:45:41;29.50;21.25;10.75
80861;PMS5003;71798;54.942;73.444;2024-01-30T01:48:52;40.00;31.00;18.00
80861;PMS5003;71798;54.942;73.444;2024-01-30T01:52:27;46.00;36.00;20.50
80861;PMS5003;71798;54.942;73.444;2024-01-30T01:55:39;45.75;36.00;19.75
80861;PMS5003;71798;54.942;73.444;2024-01-30T01:58:50;44.25;33.00;18.00
80861;PMS5003;71798;54.942;73.444;2024-01-30T02:02:01;48.75;38.00;22.25
80861;PMS5003;71798;54.942;73.444;2024-01-30T02:05:11;51.00;38.00;22.00
80861;PMS5003;71798;54.942;73.444;2024-01-30T02:07:38;63.00;47.75;28.00
80861;PMS5003;71798;54.942;73.444;2024-01-30T02:10:04;57.00;45.00;27.50
80861;PMS5003;71798;54.942;73.444;2024-01-30T02:12:31;47.00;36.25;22.00
80861;PMS5003;71798;54.942;73.444;2024-01-30T02:14:57;45.50;34.25;21.50
80861;PMS5003;71798;54.942;73.444;2024-01-30T02:17:23;54.75;41.75;25.00
80861;PMS5003;71798;54.942;73.444;2024-01-30T02:19:50;40.25;30.75;19.25
80861;PMS5003;71798;54.942;73.444;2024-01-30T02:22:17;66.75;51.00;30.00
80861;PMS5003;71798;54.942;73.444;2024-01-30T02:24:44;56.50;42.50;25.00
80861;PMS5003;71798;54.942;73.444;2024-01-30T02:27:10;49.00;39.50;21.50
80861;PMS5003;71798;54.942;73.444;2024-01-30T02:29:36;50.00;39.00;24.00
80861;PMS5003;71798;54.942;73.444;2024-01-30T02:32:03;48.75;36.50;22.00
80861;PMS5003;71798;54.942;73.444;2024-01-30T02:34:38;57.50;43.25;25.25
80861;PMS5003;71798;54.942;73.444;2024-01-30T02:37:05;69.75;52.50;30.75
80861;PMS5003;71798;54.942;73.444;2024-01-30T02:39:31;55.75;43.25;26.00
80861;PMS5003;71798;54.942;73.444;2024-01-30T02:41:57;37.50;29.25;16.25
80861;PMS5003;71798;54.942;73.444;2024-01-30T02:44:23;49.50;39.25;23.25
80861;PMS5003;71798;54.942;73.444;2024-01-30T02:46:49;53.25;40.50;23.00
80861;PMS5003;71798;54.942;73.444;2024-01-30T02:49:16;67.75;49.00;27.00
80861;PMS5003;71798;54.942;73.444;2024-01-30T02:51:42;65.25;47.50;26.00
80861;PMS5003;71798;54.942;73.444;2024-01-30T02:54:10;66.50;48.75;26.75
80861;PMS5003;71798;54.942;73.444;2024-01-30T02:56:37;58.75;44.25;25.25
80861;PMS5003;71798;54.942;73.444;2024-01-30T02:59:03;74.25;56.00;31.00
80861;PMS5003;71798;54.942;73.444;2024-01-30T03:01:29;80.50;63.50;35.00
80861;PMS5003;71798;54.942;73.444;2024-01-30T03:03:55;63.00;48.00;27.00
80861;PMS5003;71798;54.942;73.444;2024-01-30T03:06:21;59.25;45.75;26.25
80861;PMS5003;71798;54.942;73.444;2024-01-30T03:08:51;69.25;52.00;31.00
80861;PMS5003;71798;54.942;73.444;2024-01-30T03:11:17;71.50;53.50;31.75
80861;PMS5003;71798;54.942;73.444;2024-01-30T03:13:43;63.75;49.00;28.00
80861;PMS5003;71798;54.942;73.444;2024-01-30T03:16:53;48.00;37.25;22.25
80861;PMS5003;71798;54.942;73.444;2024-01-30T03:20:05;50.75;39.50;22.50
80861;PMS5003;71798;54.942;73.444;2024-01-30T03:23:16;55.75;43.75;25.00
80861;PMS5003;71798;54.942;73.444;2024-01-30T03:26:26;51.25;39.25;21.75
80861;PMS5003;71798;54.942;73.444;2024-01-30T03:29:37;56.25;42.75;24.25
80861;PMS5003;71798;54.942;73.444;2024-01-30T03:32:04;67.00;49.00;29.00
80861;PMS5003;71798;54.942;73.444;2024-01-30T03:34:30;55.75;42.00;24.25
80861;PMS5003;71798;54.942;73.444;2024-01-30T03:36:56;55.50;43.50;24.50
80861;PMS5003;71798;54.942;73.444;2024-01-30T03:39:23;54.75;40.75;22.50
80861;PMS5003;71798;54.942;73.444;2024-01-30T03:41:53;49.75;37.50;22.50
80861;PMS5003;71798;54.942;73.444;2024-01-30T03:44:19;55.00;43.00;25.00
80861;PMS5003;71798;54.942;73.444;2024-01-30T03:46:45;44.00;34.75;19.50
80861;PMS5003;71798;54.942;73.444;2024-01-30T03:49:11;61.25;47.00;29.00
80861;PMS5003;71798;54.942;73.444;2024-01-30T03:51:39;49.25;37.25;21.50
80861;PMS5003;71798;54.942;73.444;2024-01-30T03:54:05;55.00;43.00;25.00
80861;PMS5003;71798;54.942;73.444;2024-01-30T03:56:31;59.75;46.00;26.00
80861;PMS5003;71798;54.942;73.444;2024-01-30T03:58:58;49.25;38.50;22.00
80861;PMS5003;71798;54.942;73.444;2024-01-30T04:01:25;78.25;62.50;33.50
80861;PMS5003;71798;54.942;73.444;2024-01-30T04:03:51;54.50;39.25;19.25
80861;PMS5003;71798;54.942;73.444;2024-01-30T04:06:18;81.25;65.50;36.50
80861;PMS5003;71798;54.942;73.444;2024-01-30T04:08:44;71.00;54.75;30.50
80861;PMS5003;71798;54.942;73.444;2024-01-30T04:11:10;77.00;61.00;35.00
80861;PMS5003;71798;54.942;73.444;2024-01-30T04:13:36;73.25;56.50;32.25
80861;PMS5003;71798;54.942;73.444;2024-01-30T04:16:08;90.75;74.75;42.50
80861;PMS5003;71798;54.942;73.444;2024-01-30T04:18:51;83.75;62.75;33.50
80861;PMS5003;71798;54.942;73.444;2024-01-30T04:21:17;79.75;65.25;38.00
80861;PMS5003;71798;54.942;73.444;2024-01-30T04:23:43;91.50;75.00;42.00
80861;PMS5003;71798;54.942;73.444;2024-01-30T04:26:09;80.75;64.50;37.00
80861;PMS5003;71798;54.942;73.444;2024-01-30T04:28:36;67.00;51.00;28.25
80861;PMS5003;71798;54.942;73.444;2024-01-30T04:31:02;54.00;37.00;22.50
80861;PMS5003;71798;54.942;73.444;2024-01-30T04:33:28;74.25;56.25;32.75
80861;PMS5003;71798;54.942;73.444;2024-01-30T04:35:54;72.75;55.00;31.00
80861;PMS5003;71798;54.942;73.444;2024-01-30T04:38:20;60.75;47.00;26.75
80861;PMS5003;71798;54.942;73.444;2024-01-30T04:40:49;66.75;51.50;31.00
80861;PMS5003;71798;54.942;73.444;2024-01-30T04:43:15;74.50;55.75;32.00
80861;PMS5003;71798;54.942;73.444;2024-01-30T04:45:41;87.75;70.25;40.75
80861;PMS5003;71798;54.942;73.444;2024-01-30T04:48:08;72.50;55.00;32.00
80861;PMS5003;71798;54.942;73.444;2024-01-30T04:50:34;49.25;39.00;22.50
80861;PMS5003;71798;54.942;73.444;2024-01-30T04:53:00;79.75;65.25;35.75
80861;PMS5003;71798;54.942;73.444;2024-01-30T04:55:26;73.00;54.75;31.00
80861;PMS5003;71798;54.942;73.444;2024-01-30T04:57:52;65.25;48.75;28.25
80861;PMS5003;71798;54.942;73.444;2024-01-30T05:00:18;64.75;48.75;28.25
80861;PMS5003;71798;54.942;73.444;2024-01-30T05:02:45;53.50;39.00;21.75
80861;PMS5003;71798;54.942;73.444;2024-01-30T05:05:11;68.75;51.75;30.00
80861;PMS5003;71798;54.942;73.444;2024-01-30T05:07:38;68.50;52.75;31.25
80861;PMS5003;71798;54.942;73.444;2024-01-30T05:10:05;78.50;64.50;38.00
80861;PMS5003;71798;54.942;73.444;2024-01-30T05:12:32;69.25;52.25;33.00
80861;PMS5003;71798;54.942;73.444;2024-01-30T05:15:01;69.00;52.00;30.25
80861;PMS5003;71798;54.942;73.444;2024-01-30T05:17:29;73.00;55.00;33.00
80861;PMS5003;71798;54.942;73.444;2024-01-30T05:19:55;71.50;56.00;33.00
80861;PMS5003;71798;54.942;73.444;2024-01-30T05:22:21;73.25;57.25;33.50
80861;PMS5003;71798;54.942;73.444;2024-01-30T05:24:47;56.00;42.50;23.75
80861;PMS5003;71798;54.942;73.444;2024-01-30T05:27:13;45.75;35.50;19.25
80861;PMS5003;71798;54.942;73.444;2024-01-30T05:29:40;74.00;57.50;33.00
80861;PMS5003;71798;54.942;73.444;2024-01-30T05:32:07;76.00;56.00;32.00
80861;PMS5003;71798;54.942;73.444;2024-01-30T05:34:33;89.50;68.50;37.50
80861;PMS5003;71798;54.942;73.444;2024-01-30T05:36:59;78.25;60.00;32.00
80861;PMS5003;71798;54.942;73.444;2024-01-30T05:39:25;67.50;51.75;29.00
80861;PMS5003;71798;54.942;73.444;2024-01-30T05:41:51;78.75;60.50;34.00
80861;PMS5003;71798;54.942;73.444;2024-01-30T05:44:18;78.25;61.25;34.00
80861;PMS5003;71798;54.942;73.444;2024-01-30T05:46:44;74.75;56.50;31.25
80861;PMS5003;71798;54.942;73.444;2024-01-30T05:49:10;76.00;63.00;34.00
80861;PMS5003;71798;54.942;73.444;2024-01-30T05:51:36;62.00;47.25;27.00
80861;PMS5003;71798;54.942;73.444;2024-01-30T05:54:02;70.00;52.00;29.00
80861;PMS5003;71798;54.942;73.444;2024-01-30T05:56:30;67.75;51.50;30.25
80861;PMS5003;71798;54.942;73.444;2024-01-30T05:58:56;57.50;44.00;26.25
80861;PMS5003;71798;54.942;73.444;2024-01-30T06:01:24;50.00;39.00;22.25
80861;PMS5003;71798;54.942;73.444;2024-01-30T06:03:51;46.75;37.25;22.00
80861;PMS5003;71798;54.942;73.444;2024-01-30T06:06:17;75.25;58.25;33.75
80861;PMS5003;71798;54.942;73.444;2024-01-30T06:08:44;65.50;49.75;29.00
80861;PMS5003;71798;54.942;73.444;2024-01-30T06:11:10;59.00;45.00;26.00
80861;PMS5003;71798;54.942;73.444;2024-01-30T06:13:37;47.25;36.50;21.50
80861;PMS5003;71798;54.942;73.444;2024-01-30T06:16:03;79.00;64.00;35.00
80861;PMS5003;71798;54.942;73.444;2024-01-30T06:18:30;49.50;39.25;23.00
80861;PMS5003;71798;54.942;73.444;2024-01-30T06:20:57;80.00;65.75;35.00
80861;PMS5003;71798;54.942;73.444;2024-01-30T06:23:23;62.75;47.75;27.00
80861;PMS5003;71798;54.942;73.444;2024-01-30T06:25:49;68.00;51.75;30.00
80861;PMS5003;71798;54.942;73.444;2024-01-30T06:28:15;56.00;44.00;25.00
80861;PMS5003;71798;54.942;73.444;2024-01-30T06:30:42;51.00;39.00;23.50
80861;PMS5003;71798;54.942;73.444;2024-01-30T06:33:08;59.00;44.00;26.00
80861;PMS5003;71798;54.942;73.444;2024-01-30T06:35:34;50.00;39.00;22.00
80861;PMS5003;71798;54.942;73.444;2024-01-30T06:38:03;47.00;37.00;22.75
80861;PMS5003;71798;54.942;73.444;2024-01-30T06:40:29;44.00;34.00;19.00
80861;PMS5003;71798;54.942;73.444;2024-01-30T06:42:55;43.75;34.75;20.00
80861;PMS5003;71798;54.942;73.444;2024-01-30T06:45:21;62.00;48.00;28.25
80861;PMS5003;71798;54.942;73.444;2024-01-30T06:47:50;54.00;42.00;25.00
80861;PMS5003;71798;54.942;73.444;2024-01-30T06:50:16;51.50;37.25;21.00
80861;PMS5003;71798;54.942;73.444;2024-01-30T06:52:43;44.50;34.50;19.00
80861;PMS5003;71798;54.942;73.444;2024-01-30T06:55:10;56.50;44.00;26.25
80861;PMS5003;71798;54.942;73.444;2024-01-30T06:57:36;40.00;31.25;18.75
80861;PMS5003;71798;54.942;73.444;2024-01-30T07:00:08;64.00;50.00;31.75
80861;PMS5003;71798;54.942;73.444;2024-01-30T07:02:34;45.50;35.50;21.25
80861;PMS5003;71798;54.942;73.444;2024-01-30T07:05:20;27.00;22.00;14.00
80861;PMS5003;71798;54.942;73.444;2024-01-30T07:07:47;51.25;38.75;22.50
80861;PMS5003;71798;54.942;73.444;2024-01-30T07:10:14;35.75;27.50;14.75
80861;PMS5003;71798;54.942;73.444;2024-01-30T07:12:40;51.25;41.00;24.50
80861;PMS5003;71798;54.942;73.444;2024-01-30T07:15:06;52.75;42.00;23.00
80861;PMS5003;71798;54.942;73.444;2024-01-30T07:17:36;37.00;30.00;16.00
80861;PMS5003;71798;54.942;73.444;2024-01-30T07:20:03;44.75;34.25;20.00
80861;PMS5003;71798;54.942;73.444;2024-01-30T07:22:29;52.25;41.00;23.00
80861;PMS5003;71798;54.942;73.444;2024-01-30T07:24:56;46.50;35.50;20.25
80861;PMS5003;71798;54.942;73.444;2024-01-30T07:27:23;43.25;33.75;17.50
80861;PMS5003;71798;54.942;73.444;2024-01-30T07:29:49;37.00;29.00;15.50
80861;PMS5003;71798;54.942;73.444;2024-01-30T07:32:15;38.75;32.50;18.00
80861;PMS5003;71798;54.942;73.444;2024-01-30T07:34:41;42.00;35.00;20.00
80861;PMS5003;71798;54.942;73.444;2024-01-30T07:37:14;49.00;37.00;24.00
80861;PMS5003;71798;54.942;73.444;2024-01-30T07:39:41;37.75;31.50;20.00
80861;PMS5003;71798;54.942;73.444;2024-01-30T07:42:08;39.25;31.00;18.50
80861;PMS5003;71798;54.942;73.444;2024-01-30T07:44:35;36.00;29.50;16.75
80861;PMS5003;71798;54.942;73.444;2024-01-30T07:47:01;37.50;28.50;16.50
80861;PMS5003;71798;54.942;73.444;2024-01-30T07:49:28;31.00;26.00;14.00
80861;PMS5003;71798;54.942;73.444;2024-01-30T07:52:01;36.00;27.00;16.00
80861;PMS5003;71798;54.942;73.444;2024-01-30T07:54:34;24.75;20.50;11.75
80861;PMS5003;71798;54.942;73.444;2024-01-30T07:57:00;44.25;34.25;20.00
80861;PMS5003;71798;54.942;73.444;2024-01-30T07:59:27;38.25;31.00;18.00
80861;PMS5003;71798;54.942;73.444;2024-01-30T08:01:53;32.00;25.00;15.00
80861;PMS5003;71798;54.942;73.444;2024-01-30T08:04:22;38.00;30.00;18.00
80861;PMS5003;71798;54.942;73.444;2024-01-30T08:06:48;48.25;38.00;24.00
80861;PMS5003;71798;54.942;73.444;2024-01-30T08:09:14;42.50;33.50;19.75
80861;PMS5003;71798;54.942;73.444;2024-01-30T08:11:41;52.00;39.75;24.00
80861;PMS5003;71798;54.942;73.444;2024-01-30T08:14:07;54.00;41.00;24.00
80861;PMS5003;71798;54.942;73.444;2024-01-30T08:16:34;49.50;38.50;22.25
80861;PMS5003;71798;54.942;73.444;2024-01-30T08:19:01;38.25;30.25;18.00
80861;PMS5003;71798;54.942;73.444;2024-01-30T08:21:28;46.00;36.00;19.25
80861;PMS5003;71798;54.942;73.444;2024-01-30T08:23:54;38.25;29.00;16.75
80861;PMS5003;71798;54.942;73.444;2024-01-30T08:26:20;47.00;36.00;21.25
80861;PMS5003;71798;54.942;73.444;2024-01-30T08:28:47;26.00;21.75;11.75
80861;PMS5003;71798;54.942;73.444;2024-01-30T08:31:13;36.25;28.50;16.75
80861;PMS5003;71798;54.942;73.444;2024-01-30T08:33:39;44.50;35.00;22.25
80861;PMS5003;71798;54.942;73.444;2024-01-30T08:36:06;47.00;37.25;22.00
80861;PMS5003;71798;54.942;73.444;2024-01-30T08:38:32;48.50;37.50;22.75
80861;PMS5003;71798;54.942;73.444;2024-01-30T08:40:58;35.00;29.00;17.00
80861;PMS5003;71798;54.942;73.444;2024-01-30T08:43:24;49.50;39.00;24.00
80861;PMS5003;71798;54.942;73.444;2024-01-30T08:45:51;39.25;32.50;21.00
80861;PMS5003;71798;54.942;73.444;2024-01-30T08:48:18;34.75;27.00;16.00
80861;PMS5003;71798;54.942;73.444;2024-01-30T08:50:44;37.75;29.00;17.00
80861;PMS5003;71798;54.942;73.444;2024-01-30T08:53:10;38.00;31.00;18.00
80861;PMS5003;71798;54.942;73.444;2024-01-30T08:55:37;38.25;30.00;18.50
80861;PMS5003;71798;54.942;73.444;2024-01-30T08:58:03;34.00;26.75;16.00
80861;PMS5003;71798;54.942;73.444;2024-01-30T09:00:33;35.00;27.00;14.25
80861;PMS5003;71798;54.942;73.444;2024-01-30T09:03:00;51.50;40.50;25.00
80861;PMS5003;71798;54.942;73.444;2024-01-30T09:05:27;78.00;63.00;37.00
80861;PMS5003;71798;54.942;73.444;2024-01-30T09:07:53;52.25;40.50;23.25
80861;PMS5003;71798;54.942;73.444;2024-01-30T09:10:19;26.50;22.25;14.00
80861;PMS5003;71798;54.942;73.444;2024-01-30T09:12:46;44.50;35.00;21.25
80861;PMS5003;71798;54.942;73.444;2024-01-30T09:15:13;44.50;35.00;19.75
80861;PMS5003;71798;54.942;73.444;2024-01-30T09:17:39;40.25;32.25;18.75
80861;PMS5003;71798;54.942;73.444;2024-01-30T09:20:06;56.00;43.50;25.00
80861;PMS5003;71798;54.942;73.444;2024-01-30T09:22:32;37.00;29.00;14.75
80861;PMS5003;71798;54.942;73.444;2024-01-30T09:25:01;47.00;36.00;20.00
80861;PMS5003;71798;54.942;73.444;2024-01-30T09:27:27;37.75;29.50;16.25
80861;PMS5003;71798;54.942;73.444;2024-01-30T09:29:53;37.75;28.50;18.50
80861;PMS5003;71798;54.942;73.444;2024-01-30T09:32:20;53.25;40.75;23.50
80861;PMS5003;71798;54.942;73.444;2024-01-30T09:34:46;34.00;27.25;15.25
80861;PMS5003;71798;54.942;73.444;2024-01-30T09:37:12;39.50;32.00;18.75
80861;PMS5003;71798;54.942;73.444;2024-01-30T09:39:41;43.75;36.25;22.75
80861;PMS5003;71798;54.942;73.444;2024-01-30T09:42:27;48.75;37.75;22.00
80861;PMS5003;71798;54.942;73.444;2024-01-30T09:44:54;62.75;48.25;28.75
80861;PMS5003;71798;54.942;73.444;2024-01-30T09:47:25;38.75;31.00;18.00
80861;PMS5003;71798;54.942;73.444;2024-01-30T09:49:52;51.25;39.25;22.00
80861;PMS5003;71798;54.942;73.444;2024-01-30T09:52:37;45.25;35.50;20.50
80861;PMS5003;71798;54.942;73.444;2024-01-30T09:55:04;54.25;42.00;24.00
80861;PMS5003;71798;54.942;73.444;2024-01-30T09:57:36;54.00;41.00;24.00
80861;PMS5003;71798;54.942;73.444;2024-01-30T10:00:03;43.00;34.00;19.00
80861;PMS5003;71798;54.942;73.444;2024-01-30T10:02:38;30.00;24.50;14.25
80861;PMS5003;71798;54.942;73.444;2024-01-30T10:05:06;33.50;26.25;14.50
80861;PMS5003;71798;54.942;73.444;2024-01-30T10:07:33;45.50;35.25;19.00
80861;PMS5003;71798;54.942;73.444;2024-01-30T10:10:00;47.00;36.00;21.00
80861;PMS5003;71798;54.942;73.444;2024-01-30T10:12:26;42.50;31.00;17.00
80861;PMS5003;71798;54.942;73.444;2024-01-30T10:15:01;34.00;27.00;15.50
80861;PMS5003;71798;54.942;73.444;2024-01-30T10:17:28;40.75;32.25;18.50
80861;PMS5003;71798;54.942;73.444;2024-01-30T10:19:59;35.50;28.25;17.25
80861;PMS5003;71798;54.942;73.444;2024-01-30T10:22:25;34.00;27.00;16.00
80861;PMS5003;71798;54.942;73.444;2024-01-30T10:24:51;37.75;28.75;14.75
80861;PMS5003;71798;54.942;73.444;2024-01-30T10:27:23;52.75;41.25;24.75
80861;PMS5003;71798;54.942;73.444;2024-01-30T10:29:49;43.00;33.00;20.00
80861;PMS5003;71798;54.942;73.444;2024-01-30T10:32:17;32.00;24.00;16.00
80861;PMS5003;71798;54.942;73.444;2024-01-30T10:34:43;36.00;26.00;15.00
80861;PMS5003;71798;54.942;73.444;2024-01-30T10:37:11;28.75;24.00;15.00
80861;PMS5003;71798;54.942;73.444;2024-01-30T10:39:44;41.00;32.00;19.00
80861;PMS5003;71798;54.942;73.444;2024-01-30T10:42:29;35.75;28.75;17.00
80861;PMS5003;71798;54.942;73.444;2024-01-30T10:45:07;26.00;20.00;11.00
80861;PMS5003;71798;54.942;73.444;2024-01-30T10:47:40;37.00;29.25;17.00
80861;PMS5003;71798;54.942;73.444;2024-01-30T10:50:09;34.00;27.00;16.00
80861;PMS5003;71798;54.942;73.444;2024-01-30T10:52:36;29.50;23.25;11.25
80861;PMS5003;71798;54.942;73.444;2024-01-30T10:55:04;34.00;28.00;16.00
80861;PMS5003;71798;54.942;73.444;2024-01-30T10:57:31;39.25;31.00;18.00
80861;PMS5003;71798;54.942;73.444;2024-01-30T11:00:00;40.50;31.75;18.00
80861;PMS5003;71798;54.942;73.444;2024-01-30T11:02:32;52.25;40.00;23.00
80861;PMS5003;71798;54.942;73.444;2024-01-30T11:04:58;38.50;30.50;19.25
80861;PMS5003;71798;54.942;73.444;2024-01-30T11:07:26;34.25;27.00;16.00
80861;PMS5003;71798;54.942;73.444;2024-01-30T11:10:02;41.25;31.75;19.50
80861;PMS5003;71798;54.942;73.444;2024-01-30T11:12:32;42.25;32.50;16.75
80861;PMS5003;71798;54.942;73.444;2024-01-30T11:15:11;36.00;29.00;17.00
80861;PMS5003;71798;54.942;73.444;2024-01-30T11:20:11;48.50;39.00;23.00
80861;PMS5003;71798;54.942;73.444;2024-01-30T11:22:37;34.75;27.25;15.00
80861;PMS5003;71798;54.942;73.444;2024-01-30T11:25:04;52.75;39.75;23.75
80861;PMS5003;71798;54.942;73.444;2024-01-30T11:27:30;57.75;44.00;27.00
80861;PMS5003;71798;54.942;73.444;2024-01-30T11:30:01;48.25;37.25;23.00
80861;PMS5003;71798;54.942;73.444;2024-01-30T11:32:27;45.00;37.00;21.00
80861;PMS5003;71798;54.942;73.444;2024-01-30T11:34:54;51.50;41.00;25.25
80861;PMS5003;71798;54.942;73.444;2024-01-30T11:37:20;33.75;27.25;15.00
80861;PMS5003;71798;54.942;73.444;2024-01-30T11:39:50;36.75;29.50;17.25
80861;PMS5003;71798;54.942;73.444;2024-01-30T11:42:17;38.75;30.25;18.00
80861;PMS5003;71798;54.942;73.444;2024-01-30T11:44:47;25.25;20.75;12.50
80861;PMS5003;71798;54.942;73.444;2024-01-30T11:47:14;45.25;35.50;20.00
80861;PMS5003;71798;54.942;73.444;2024-01-30T11:49:40;51.25;40.25;24.00
80861;PMS5003;71798;54.942;73.444;2024-01-30T11:52:06;52.25;39.00;22.25
80861;PMS5003;71798;54.942;73.444;2024-01-30T11:54:33;37.00;29.75;17.00
80861;PMS5003;71798;54.942;73.444;2024-01-30T11:57:00;33.00;27.75;16.50
80861;PMS5003;71798;54.942;73.444;2024-01-30T11:59:26;38.75;30.50;17.00
80861;PMS5003;71798;54.942;73.444;2024-01-30T12:02:01;22.50;18.00;11.50
80861;PMS5003;71798;54.942;73.444;2024-01-30T12:04:28;48.00;37.00;21.00
80861;PMS5003;71798;54.942;73.444;2024-01-30T12:06:55;52.75;41.25;23.00
80861;PMS5003;71798;54.942;73.444;2024-01-30T12:09:21;47.75;37.25;22.75
80861;PMS5003;71798;54.942;73.444;2024-01-30T12:11:48;50.25;38.75;23.25
80861;PMS5003;71798;54.942;73.444;2024-01-30T12:14:18;57.00;44.00;27.00
80861;PMS5003;71798;54.942;73.444;2024-01-30T12:17:06;63.25;48.00;28.00
80861;PMS5003;71798;54.942;73.444;2024-01-30T12:19:34;56.25;42.75;25.00
80861;PMS5003;71798;54.942;73.444;2024-01-30T12:22:17;47.00;37.25;22.00
80861;PMS5003;71798;54.942;73.444;2024-01-30T12:24:44;58.00;44.75;26.00
80861;PMS5003;71798;54.942;73.444;2024-01-30T12:27:30;61.00;48.00;27.25
80861;PMS5003;71798;54.942;73.444;2024-01-30T12:29:57;49.00;37.00;22.00
80861;PMS5003;71798;54.942;73.444;2024-01-30T12:32:23;50.25;38.25;22.00
80861;PMS5003;71798;54.942;73.444;2024-01-30T12:34:55;51.00;39.00;23.00
80861;PMS5003;71798;54.942;73.444;2024-01-30T12:37:22;63.50;49.00;29.75
80861;PMS5003;71798;54.942;73.444;2024-01-30T12:39:53;60.00;46.50;26.50
80861;PMS5003;71798;54.942;73.444;2024-01-30T12:42:20;55.75;43.75;25.00
80861;PMS5003;71798;54.942;73.444;2024-01-30T12:45:09;57.00;43.25;24.75
80861;PMS5003;71798;54.942;73.444;2024-01-30T12:47:35;33.00;26.50;15.50
80861;PMS5003;71798;54.942;73.444;2024-01-30T12:50:02;52.50;40.25;23.50
80861;PMS5003;71798;54.942;73.444;2024-01-30T12:52:29;46.50;35.25;20.25
80861;PMS5003;71798;54.942;73.444;2024-01-30T12:54:55;55.50;43.50;26.00
80861;PMS5003;71798;54.942;73.444;2024-01-30T12:57:21;37.00;30.50;17.00
80861;PMS5003;71798;54.942;73.444;2024-01-30T13:00:01;39.25;30.75;17.25
80861;PMS5003;71798;54.942;73.444;2024-01-30T13:02:28;49.00;38.00;22.00
80861;PMS5003;71798;54.942;73.444;2024-01-30T13:05:03;47.00;36.00;21.00
80861;PMS5003;71798;54.942;73.444;2024-01-30T13:07:30;54.50;43.25;26.00
80861;PMS5003;71798;54.942;73.444;2024-01-30T13:09:56;57.00;42.00;24.00
80861;PMS5003;71798;54.942;73.444;2024-01-30T13:12:41;46.50;36.25;20.50
80861;PMS5003;71798;54.942;73.444;2024-01-30T13:15:09;33.00;25.75;15.50
80861;PMS5003;71798;54.942;73.444;2024-01-30T13:17:44;49.00;38.00;21.00
80861;PMS5003;71798;54.942;73.444;2024-01-30T13:20:13;36.75;29.00;15.50
80861;PMS5003;71798;54.942;73.444;2024-01-30T13:22:43;54.25;41.25;23.25
80861;PMS5003;71798;54.942;73.444;2024-01-30T13:25:09;52.00;42.00;25.00
80861;PMS5003;71798;54.942;73.444;2024-01-30T13:27:36;44.00;34.75;19.50
80861;PMS5003;71798;54.942;73.444;2024-01-30T13:30:03;61.75;47.00;27.25
80861;PMS5003;71798;54.942;73.444;2024-01-30T13:32:50;58.00;44.50;26.50
80861;PMS5003;71798;54.942;73.444;2024-01-30T13:35:17;52.50;40.50;23.25
80861;PMS5003;71798;54.942;73.444;2024-01-30T13:37:43;55.00;42.25;23.50
80861;PMS5003;71798;54.942;73.444;2024-01-30T13:40:10;57.50;44.25;25.00
80861;PMS5003;71798;54.942;73.444;2024-01-30T13:42:36;56.50;44.25;24.50
80861;PMS5003;71798;54.942;73.444;2024-01-30T13:45:03;49.50;38.00;20.50
80861;PMS5003;71798;54.942;73.444;2024-01-30T13:47:29;73.00;55.00;30.75
80861;PMS5003;71798;54.942;73.444;2024-01-30T13:50:03;64.50;50.00;30.00